Time;durP1;ratioP1;P1;durP2;ratioP2;P2;SDS_P1;SDS_P2;PMS_P1;PMS_P2;Temp;Humidity;BMP_temperature;BMP_pressure;BME280_temperature;BME280_humidity;BME280_pressure;Samples;Min_cycle;Max_cycle;Signal;HPM_P1;HPM_P2
2023/05/14 07:43:37;;;;;;;27.80;12.53;;;14.40;99.90;;;;;;3237589;23;20327;-75
2023/05/14 07:46:05;;;;;;;25.10;11.87;;;14.40;99.90;;;;;;4943433;29;20267;-76
2023/05/14 07:48:32;;;;;;;26.90;12.93;;;14.40;99.90;;;;;;4957943;28;20199;-77
2023/05/14 07:51:01;;;;;;;30.80;13.60;;;14.40;99.90;;;;;;4973348;28;20263;-77
2023/05/14 07:53:28;;;;;;;29.77;13.07;;;14.40;99.90;;;;;;4973674;28;20670;-76
2023/05/14 07:55:55;;;;;;;27.00;13.07;;;14.50;99.90;;;;;;4973918;28;20297;-77
2023/05/14 07:58:22;;;;;;;26.97;12.50;;;14.80;99.90;;;;;;4973917;28;20239;-77
2023/05/14 08:00:50;;;;;;;27.63;13.10;;;14.80;99.90;;;;;;4961055;28;20251;-77
2023/05/14 08:03:17;;;;;;;26.40;12.63;;;14.90;99.90;;;;;;4954633;28;20295;-77
2023/05/14 08:05:45;;;;;;;27.67;13.17;;;15.10;99.90;;;;;;4954590;28;20215;-82
2023/05/14 08:08:12;;;;;;;31.33;13.27;;;15.10;99.90;;;;;;4963461;28;20284;-87
2023/05/14 08:10:39;;;;;;;27.03;12.90;;;15.20;99.90;;;;;;4973429;28;20247;-85
2023/05/14 08:13:06;;;;;;;25.53;13.67;;;15.00;99.90;;;;;;4956881;28;20220;-89
2023/05/14 08:15:33;;;;;;;24.60;11.93;;;15.20;99.90;;;;;;4955276;28;20255;-83
2023/05/14 08:18:02;;;;;;;22.70;12.37;;;15.50;99.90;;;;;;4957553;28;20654;-82
2023/05/14 08:20:29;;;;;;;25.40;13.33;;;15.60;99.90;;;;;;4957188;28;20293;-78
2023/05/14 08:22:57;;;;;;;25.23;12.47;;;15.80;99.90;;;;;;4976278;28;20618;-83
2023/05/14 08:25:24;;;;;;;20.67;11.90;;;16.00;99.90;;;;;;4976274;28;20211;-78
2023/05/14 08:27:52;;;;;;;19.97;11.57;;;16.00;99.90;;;;;;4961663;28;20303;-78
2023/05/14 08:30:19;;;;;;;27.00;11.83;;;15.90;99.90;;;;;;4957122;28;20236;-87
2023/05/14 08:32:46;;;;;;;26.93;11.90;;;15.80;99.90;;;;;;4956793;28;20275;-78
2023/05/14 08:35:15;;;;;;;20.70;10.90;;;15.70;99.90;;;;;;4956426;28;20302;-80
2023/05/14 08:37:41;;;;;;;27.67;11.03;;;15.70;99.90;;;;;;4957674;28;20208;-77
2023/05/14 08:40:09;;;;;;;22.37;11.00;;;15.70;99.90;;;;;;4956261;28;20289;-77
2023/05/14 08:42:39;;;;;;;24.10;11.63;;;15.90;99.90;;;;;;4956514;28;20204;-78
2023/05/14 08:45:11;;;;;;;29.23;12.00;;;16.10;99.90;;;;;;4956630;28;20209;-79
2023/05/14 08:47:38;;;;;;;25.17;11.70;;;16.40;99.90;;;;;;4956223;28;20615;-76
2023/05/14 08:50:07;;;;;;;23.00;10.97;;;16.40;99.90;;;;;;4956064;28;20283;-79
2023/05/14 08:52:35;;;;;;;19.60;11.87;;;16.40;99.90;;;;;;4956701;28;20227;-85
2023/05/14 08:55:05;;;;;;;24.13;10.77;;;16.30;99.90;;;;;;4957025;28;20204;-84
2023/05/14 08:57:33;;;;;;;22.97;11.40;;;16.40;99.90;;;;;;4956492;28;20212;-80
2023/05/14 09:00:00;;;;;;;22.30;10.57;;;16.50;99.90;;;;;;4956116;28;20228;-78
2023/05/14 09:02:29;;;;;;;19.87;11.00;;;16.30;99.90;;;;;;4956486;28;20296;-80
2023/05/14 09:04:58;;;;;;;24.07;11.00;;;16.50;99.90;;;;;;4956137;28;20671;-81
2023/05/14 09:07:26;;;;;;;18.40;10.50;;;16.80;99.90;;;;;;4955924;28;20208;-79
2023/05/14 09:09:55;;;;;;;17.37;10.27;;;16.90;99.90;;;;;;4956304;28;20284;-78
2023/05/14 09:12:23;;;;;;;19.63;10.07;;;17.10;99.90;;;;;;4955866;28;20207;-80
2023/05/14 09:14:51;;;;;;;19.60;10.57;;;17.10;99.90;;;;;;4955965;28;20204;-76
2023/05/14 09:17:18;;;;;;;20.37;10.17;;;17.40;99.90;;;;;;4955924;28;20326;-81
2023/05/14 09:19:47;;;;;;;16.47;10.33;;;17.60;99.90;;;;;;4956098;28;20690;-79
2023/05/14 09:22:16;;;;;;;19.83;11.80;;;17.80;99.90;;;;;;4956238;28;20627;-78
2023/05/14 09:24:43;;;;;;;16.60;10.63;;;18.20;99.90;;;;;;4955631;28;20248;-79
2023/05/14 09:27:19;;;;;;;16.52;10.05;;;18.60;99.90;;;;;;4955064;28;20552;-79
2023/05/14 09:29:46;;;;;;;19.08;9.63;;;19.00;99.90;;;;;;4955786;28;20255;-79
2023/05/14 09:32:13;;;;;;;16.13;9.68;;;19.00;99.90;;;;;;4963089;28;20242;-79
2023/05/14 09:34:41;;;;;;;15.73;10.45;;;19.40;99.90;;;;;;4963667;28;20515;-76
2023/05/14 09:37:09;;;;;;;17.67;9.65;;;20.30;99.90;;;;;;4966936;28;20235;-77
2023/05/14 09:39:37;;;;;;;14.55;9.70;;;20.50;99.90;;;;;;4975165;28;20677;-75
2023/05/14 09:42:05;;;;;;;14.88;9.60;;;20.70;99.90;;;;;;4976026;28;20234;-78
2023/05/14 09:44:35;;;;;;;13.88;9.38;;;20.70;99.90;;;;;;4975930;28;20582;-76
2023/05/14 09:47:03;;;;;;;15.57;9.13;;;20.60;99.90;;;;;;4975776;28;20602;-77
2023/05/14 09:49:30;;;;;;;15.35;9.32;;;20.70;99.90;;;;;;4976097;28;20274;-74
2023/05/14 09:51:56;;;;;;;18.83;10.13;;;20.50;99.90;;;;;;4976249;28;20245;-76
2023/05/14 09:54:26;;;;;;;17.35;9.25;;;20.10;99.90;;;;;;4975911;28;20211;-78
2023/05/14 09:56:53;;;;;;;15.52;9.27;;;20.00;99.90;;;;;;4976257;28;20274;-76
2023/05/14 09:59:20;;;;;;;20.48;10.85;;;20.40;99.90;;;;;;4975539;28;20242;-75
2023/05/14 10:01:49;;;;;;;15.10;10.10;;;20.50;99.90;;;;;;4970889;28;20259;-75
2023/05/14 10:04:16;;;;;;;15.90;9.20;;;20.40;99.90;;;;;;4956314;28;20683;-72
2023/05/14 10:06:46;;;;;;;13.30;8.95;;;20.40;99.90;;;;;;4955852;28;20615;-77
2023/05/14 10:09:16;;;;;;;14.10;9.77;;;20.40;99.90;;;;;;4956664;29;20250;-76
2023/05/14 10:11:45;;;;;;;16.65;9.82;;;20.40;99.90;;;;;;4956262;28;20311;-76
2023/05/14 10:14:17;;;;;;;15.93;9.63;;;20.40;99.90;;;;;;4956469;28;20208;-76
2023/05/14 10:16:53;;;;;;;16.38;9.40;;;20.40;99.90;;;;;;4955990;28;20243;-75
2023/05/14 10:19:22;;;;;;;16.05;8.75;;;20.00;99.90;;;;;;4956180;28;20694;-76
2023/05/14 10:21:54;;;;;;;16.58;9.00;;;19.70;99.90;;;;;;4956177;28;20263;-77
2023/05/14 10:24:22;;;;;;;13.38;9.32;;;19.60;99.90;;;;;;4956118;29;20294;-74
2023/05/14 10:26:49;;;;;;;14.23;9.35;;;19.60;99.90;;;;;;4956139;29;20244;-75
2023/05/14 10:29:16;;;;;;;15.85;9.10;;;19.60;99.90;;;;;;4955625;28;20726;-77
2023/05/14 10:31:53;;;;;;;15.43;10.48;;;19.80;99.90;;;;;;4955420;28;20319;-75
2023/05/14 10:34:41;;;;;;;15.00;9.25;;;20.00;99.90;;;;;;4956113;28;20251;-75
2023/05/14 10:37:09;;;;;;;14.73;8.98;;;19.90;99.90;;;;;;4955769;29;20235;-76
2023/05/14 10:39:45;;;;;;;17.23;9.63;;;19.90;99.90;;;;;;4955437;28;20243;-77
2023/05/14 10:42:13;;;;;;;16.90;9.35;;;20.10;99.90;;;;;;4955594;28;20290;-76
2023/05/14 10:44:47;;;;;;;15.07;8.75;;;20.10;99.90;;;;;;4955401;28;20219;-75
2023/05/14 10:47:16;;;;;;;16.50;9.30;;;20.00;99.90;;;;;;4955739;28;20243;-77
2023/05/14 10:49:47;;;;;;;13.80;8.70;;;19.80;99.90;;;;;;4955807;28;20219;-75
2023/05/14 10:52:17;;;;;;;12.93;8.60;;;19.80;99.90;;;;;;4955667;28;20570;-77
2023/05/14 10:54:51;;;;;;;13.82;8.75;;;19.70;99.90;;;;;;4955145;28;20208;-75
2023/05/14 10:57:19;;;;;;;12.13;8.65;;;20.00;99.90;;;;;;4955102;28;20239;-76
2023/05/14 10:59:47;;;;;;;13.73;8.60;;;20.20;99.90;;;;;;4954808;28;20211;-75
2023/05/14 11:02:26;;;;;;;11.75;8.27;;;20.00;99.90;;;;;;4955115;28;20298;-76
2023/05/14 11:04:56;;;;;;;15.20;8.70;;;19.70;99.90;;;;;;4955239;28;20301;-74
2023/05/14 11:07:26;;;;;;;15.25;8.60;;;19.80;99.90;;;;;;4955402;28;20291;-76
2023/05/14 11:09:54;;;;;;;15.20;9.02;;;19.80;99.90;;;;;;4955127;28;20311;-76
2023/05/14 11:12:21;;;;;;;13.38;8.52;;;19.80;99.90;;;;;;4955134;29;20299;-76
2023/05/14 11:14:48;;;;;;;15.48;8.88;;;19.70;99.90;;;;;;4955052;28;20250;-75
2023/05/14 11:17:15;;;;;;;13.43;9.00;;;19.70;99.90;;;;;;4955041;29;20643;-75
2023/05/14 11:19:44;;;;;;;14.15;8.43;;;19.50;99.90;;;;;;4955428;28;20220;-76
2023/05/14 11:22:13;;;;;;;14.07;9.25;;;19.60;99.90;;;;;;4954894;28;20639;-76
2023/05/14 11:24:40;;;;;;;14.43;9.07;;;19.70;99.90;;;;;;4954957;29;20219;-74
2023/05/14 11:27:08;;;;;;;14.82;9.43;;;19.60;99.90;;;;;;4955052;28;20314;-76
2023/05/14 11:29:35;;;;;;;12.90;7.85;;;19.60;99.90;;;;;;4954603;28;20685;-74
2023/05/14 11:32:05;;;;;;;15.73;8.77;;;19.90;99.90;;;;;;4954726;28;20235;-74
2023/05/14 11:34:32;;;;;;;13.40;8.75;;;20.10;99.90;;;;;;4955119;29;20291;-75
2023/05/14 11:37:03;;;;;;;14.80;8.90;;;20.40;99.90;;;;;;4954850;28;20660;-76
2023/05/14 11:39:31;;;;;;;13.50;8.70;;;20.40;99.90;;;;;;4954753;29;20239;-74
2023/05/14 11:41:58;;;;;;;11.27;8.10;;;20.30;99.90;;;;;;4955321;28;20219;-75
2023/05/14 11:44:25;;;;;;;12.25;7.53;;;20.00;99.90;;;;;;4954754;28;20216;-75
2023/05/14 11:46:56;;;;;;;12.10;7.57;;;20.00;99.90;;;;;;4955123;28;20290;-75
2023/05/14 11:49:23;;;;;;;13.57;8.75;;;19.80;99.90;;;;;;4954636;28;20729;-75
2023/05/14 11:51:50;;;;;;;11.15;7.72;;;20.00;99.90;;;;;;4953830;28;20231;-74
2023/05/14 11:54:18;;;;;;;12.95;7.47;;;20.10;99.90;;;;;;4954633;28;20262;-76
2023/05/14 11:56:51;;;;;;;12.55;7.97;;;20.10;99.90;;;;;;4954374;28;20240;-76
2023/05/14 11:59:18;;;;;;;11.82;7.28;;;20.20;99.90;;;;;;4954627;28;20211;-75
2023/05/14 12:01:45;;;;;;;12.68;7.68;;;20.30;99.90;;;;;;4954465;28;20235;-76
2023/05/14 12:04:13;;;;;;;14.60;8.23;;;20.20;99.90;;;;;;4954534;28;20207;-77
2023/05/14 12:06:40;;;;;;;14.13;8.02;;;20.40;99.90;;;;;;4954783;28;20228;-76
2023/05/14 12:09:07;;;;;;;15.02;8.20;;;20.30;99.90;;;;;;4954500;28;20219;-76
2023/05/14 12:11:37;;;;;;;13.63;8.18;;;20.30;99.90;;;;;;4954339;28;20232;-75
2023/05/14 12:14:11;;;;;;;13.77;8.18;;;20.40;99.90;;;;;;4954723;28;20575;-76
2023/05/14 12:16:40;;;;;;;10.45;7.63;;;20.30;99.90;;;;;;4954400;29;20244;-75
2023/05/14 12:19:10;;;;;;;13.95;8.60;;;20.40;99.90;;;;;;4954187;28;20212;-76
2023/05/14 12:21:37;;;;;;;11.75;7.53;;;20.30;99.90;;;;;;4954129;28;20313;-76
2023/05/14 12:24:05;;;;;;;12.57;7.65;;;20.40;99.90;;;;;;4954243;28;20738;-77
2023/05/14 12:26:33;;;;;;;11.73;7.70;;;20.50;99.90;;;;;;4954499;28;20266;-76
2023/05/14 12:29:03;;;;;;;11.43;8.07;;;20.40;99.90;;;;;;4954630;29;20208;-76
2023/05/14 12:31:30;;;;;;;12.98;8.40;;;20.30;99.90;;;;;;4954119;28;20599;-76
2023/05/14 12:33:58;;;;;;;16.05;8.45;;;20.40;99.90;;;;;;4954362;28;20240;-76
2023/05/14 12:36:24;;;;;;;14.95;8.43;;;20.20;99.90;;;;;;4954100;28;20295;-76
2023/05/14 12:38:58;;;;;;;11.90;7.82;;;20.30;99.90;;;;;;4954078;28;20255;-75
2023/05/14 12:41:25;;;;;;;11.00;7.32;;;20.50;99.90;;;;;;4954057;28;20727;-75
2023/05/14 12:43:52;;;;;;;10.73;7.15;;;20.60;99.90;;;;;;4953959;28;20216;-75
2023/05/14 12:46:20;;;;;;;12.02;7.68;;;20.80;99.90;;;;;;4954074;28;20638;-74
2023/05/14 12:48:47;;;;;;;12.30;8.18;;;20.80;99.90;;;;;;4954206;28;20568;-75
2023/05/14 12:51:14;;;;;;;12.60;7.95;;;21.10;99.90;;;;;;4953977;29;20259;-76
2023/05/14 12:53:41;;;;;;;10.93;7.95;;;21.10;99.90;;;;;;4954584;28;20235;-75
2023/05/14 12:56:09;;;;;;;13.52;7.75;;;21.00;99.90;;;;;;4954105;29;20244;-76
2023/05/14 12:58:36;;;;;;;14.43;9.70;;;20.90;99.90;;;;;;4954176;28;20318;-75
2023/05/14 13:01:03;;;;;;;15.07;8.55;;;21.10;99.90;;;;;;4953653;28;20667;-77
2023/05/14 13:03:31;;;;;;;10.85;7.38;;;21.20;99.90;;;;;;4955683;28;20247;-76
2023/05/14 13:05:58;;;;;;;11.82;7.45;;;21.20;99.90;;;;;;4957269;28;20255;-76
2023/05/14 13:08:26;;;;;;;12.93;7.57;;;21.30;99.90;;;;;;4957421;28;20290;-76
2023/05/14 13:10:54;;;;;;;13.35;7.07;;;21.00;99.90;;;;;;4957387;28;20302;-75
2023/05/14 13:13:21;;;;;;;10.02;6.93;;;21.00;99.90;;;;;;4957189;28;20216;-75
2023/05/14 13:15:48;;;;;;;12.90;7.78;;;21.10;99.90;;;;;;4957460;28;20291;-76
2023/05/14 13:18:16;;;;;;;10.18;7.15;;;21.30;99.90;;;;;;4957005;29;20341;-77
2023/05/14 13:20:46;;;;;;;13.93;7.65;;;21.40;99.90;;;;;;4957246;29;20319;-76
2023/05/14 13:23:13;;;;;;;11.27;7.07;;;21.50;99.90;;;;;;4957347;28;20204;-76
2023/05/14 13:25:40;;;;;;;13.80;7.60;;;21.60;99.90;;;;;;4957468;28;20578;-75
2023/05/14 13:28:07;;;;;;;11.05;6.82;;;21.60;99.90;;;;;;4957421;28;20243;-77
2023/05/14 13:30:33;;;;;;;13.05;7.30;;;21.40;99.90;;;;;;4956924;28;20255;-77
2023/05/14 13:33:00;;;;;;;14.70;7.95;;;21.30;99.90;;;;;;4956938;29;20236;-77
2023/05/14 13:35:27;;;;;;;11.57;6.95;;;21.40;99.90;;;;;;4956669;29;20295;-76
2023/05/14 13:37:55;;;;;;;13.57;7.43;;;21.40;99.90;;;;;;4956315;29;20275;-77
2023/05/14 13:40:23;;;;;;;11.10;7.40;;;21.40;99.90;;;;;;4956621;28;20319;-77
2023/05/14 13:42:49;;;;;;;12.10;7.80;;;21.30;99.90;;;;;;4956197;28;20259;-75
2023/05/14 13:45:16;;;;;;;12.68;7.20;;;21.40;99.90;;;;;;4956065;28;20295;-75
2023/05/14 13:47:44;;;;;;;12.40;6.90;;;21.60;99.90;;;;;;4956282;28;20247;-76
2023/05/14 13:50:11;;;;;;;11.52;7.38;;;21.50;99.90;;;;;;4956557;28;20283;-76
2023/05/14 13:52:38;;;;;;;10.38;7.07;;;21.50;99.90;;;;;;4956908;28;20253;-76
2023/05/14 13:55:08;;;;;;;11.98;6.90;;;21.70;99.90;;;;;;4956477;28;20208;-76
2023/05/14 13:57:35;;;;;;;9.15;6.07;;;21.70;99.90;;;;;;4956379;28;20271;-75
2023/05/14 14:00:01;;;;;;;10.68;6.18;;;21.80;99.90;;;;;;4956191;28;20274;-76
2023/05/14 14:02:28;;;;;;;8.75;5.72;;;22.10;99.90;;;;;;4956476;28;20282;-74
2023/05/14 14:04:55;;;;;;;14.70;7.38;;;22.30;99.90;;;;;;4956670;28;20235;-75
2023/05/14 14:07:22;;;;;;;11.77;6.75;;;22.60;99.90;;;;;;4956347;29;20252;-73
2023/05/14 14:09:49;;;;;;;11.65;6.32;;;22.60;99.90;;;;;;4956507;28;20552;-76
2023/05/14 14:12:17;;;;;;;13.50;6.55;;;22.60;99.90;;;;;;4956308;28;20243;-75
2023/05/14 14:14:44;;;;;;;8.57;6.00;;;22.40;99.90;;;;;;4955502;28;20295;-73
2023/05/14 14:17:11;;;;;;;9.13;6.20;;;22.50;99.90;;;;;;4956421;28;20320;-75
2023/05/14 14:19:38;;;;;;;10.07;5.60;;;22.60;99.90;;;;;;4956201;29;20299;-73
2023/05/14 14:22:05;;;;;;;11.75;6.00;;;22.70;99.90;;;;;;4956004;29;20208;-76
2023/05/14 14:24:32;;;;;;;7.72;5.47;;;22.70;99.90;;;;;;4955681;28;20734;-74
2023/05/14 14:27:01;;;;;;;9.90;5.50;;;22.90;99.90;;;;;;4955802;28;20212;-76
2023/05/14 14:29:30;;;;;;;6.03;4.80;;;22.90;99.90;;;;;;4956017;29;20208;-76
2023/05/14 14:31:57;;;;;;;7.70;5.30;;;23.00;99.90;;;;;;4956149;28;20208;-75
2023/05/14 14:34:23;;;;;;;9.30;5.40;;;23.00;99.90;;;;;;4955821;28;20303;-75
2023/05/14 14:36:50;;;;;;;10.65;4.93;;;22.90;99.90;;;;;;4955956;28;20299;-77
2023/05/14 14:39:17;;;;;;;7.70;5.35;;;22.90;99.90;;;;;;4955827;29;20662;-76
2023/05/14 14:41:44;;;;;;;8.07;5.20;;;22.90;99.90;;;;;;4955535;29;20263;-76
2023/05/14 14:44:11;;;;;;;7.70;4.90;;;22.80;99.90;;;;;;4955703;28;20283;-75
2023/05/14 14:46:41;;;;;;;7.70;5.03;;;22.70;99.90;;;;;;4955494;28;20303;-76
2023/05/14 14:49:08;;;;;;;6.25;4.60;;;22.80;99.90;;;;;;4955716;28;20212;-75
2023/05/14 14:51:35;;;;;;;7.05;4.57;;;22.80;99.90;;;;;;4955614;28;20228;-76
2023/05/14 14:54:03;;;;;;;8.60;4.65;;;22.50;99.90;;;;;;4955365;28;20266;-75
2023/05/14 14:56:31;;;;;;;7.30;4.75;;;22.50;99.90;;;;;;4955400;28;20208;-74
2023/05/14 14:58:57;;;;;;;6.80;4.55;;;22.60;99.90;;;;;;4955539;28;20602;-74
2023/05/14 15:01:24;;;;;;;4.88;4.03;;;22.60;99.90;;;;;;4955102;28;20306;-73
2023/05/14 15:03:53;;;;;;;8.93;4.82;;;22.50;99.90;;;;;;4955429;28;20247;-74
2023/05/14 15:06:19;;;;;;;6.03;4.30;;;22.50;99.90;;;;;;4955547;28;20286;-73
2023/05/14 15:08:46;;;;;;;6.68;4.65;;;22.60;99.90;;;;;;4954938;28;20691;-73
2023/05/14 15:11:14;;;;;;;10.25;5.15;;;22.60;99.90;;;;;;4955350;28;20259;-74
2023/05/14 15:13:41;;;;;;;7.68;4.40;;;22.50;99.90;;;;;;4955338;28;20226;-74
2023/05/14 15:16:08;;;;;;;5.53;4.00;;;22.50;99.90;;;;;;4955014;28;20211;-73
2023/05/14 15:18:35;;;;;;;8.13;4.63;;;22.70;99.90;;;;;;4955078;28;20330;-75
2023/05/14 15:21:04;;;;;;;8.35;4.35;;;22.70;99.90;;;;;;4954981;29;20263;-76
2023/05/14 15:23:31;;;;;;;6.63;4.50;;;22.50;99.90;;;;;;4955065;28;20211;-74
2023/05/14 15:25:58;;;;;;;7.93;4.35;;;22.70;99.90;;;;;;4954546;28;20255;-74
2023/05/14 15:28:25;;;;;;;10.10;4.35;;;22.70;99.90;;;;;;4955113;29;20246;-74
2023/05/14 15:30:52;;;;;;;8.25;4.95;;;22.60;99.90;;;;;;4954895;29;20267;-75
2023/05/14 15:33:20;;;;;;;8.43;4.88;;;22.50;99.90;;;;;;4955049;28;20226;-74
2023/05/14 15:35:47;;;;;;;8.13;4.50;;;22.40;99.90;;;;;;4954927;28;20294;-73
2023/05/14 15:38:15;;;;;;;7.63;4.53;;;22.20;99.90;;;;;;4954919;28;20324;-73
2023/05/14 15:40:42;;;;;;;8.15;4.22;;;22.00;99.90;;;;;;4954779;28;20267;-73
2023/05/14 15:43:09;;;;;;;8.60;4.38;;;22.00;99.90;;;;;;4954806;28;20705;-74
2023/05/14 15:45:36;;;;;;;8.25;4.55;;;21.80;99.90;;;;;;4954549;29;20212;-73
2023/05/14 15:48:03;;;;;;;7.20;4.60;;;21.70;99.90;;;;;;4954805;28;20212;-73
2023/05/14 15:50:30;;;;;;;13.48;4.88;;;21.50;99.90;;;;;;4954820;29;20315;-74
2023/05/14 15:52:57;;;;;;;8.82;4.47;;;21.30;99.90;;;;;;4954810;28;20734;-74
2023/05/14 15:55:25;;;;;;;7.95;4.72;;;21.50;99.90;;;;;;4954844;28;20299;-75
2023/05/14 15:57:52;;;;;;;8.88;5.13;;;21.50;99.90;;;;;;4954886;29;20266;-73
2023/05/14 16:00:20;;;;;;;9.38;4.57;;;21.30;99.90;;;;;;4954576;28;20259;-74
2023/05/14 16:02:47;;;;;;;8.23;4.93;;;21.20;99.90;;;;;;4954527;28;20271;-73
2023/05/14 16:05:14;;;;;;;8.23;4.80;;;20.90;99.90;;;;;;4954494;28;20287;-75
2023/05/14 16:07:42;;;;;;;9.55;5.15;;;20.80;99.90;;;;;;4954459;28;20669;-72
2023/05/14 16:10:09;;;;;;;7.82;5.05;;;20.60;99.90;;;;;;4954505;28;20315;-73
2023/05/14 16:12:37;;;;;;;10.20;5.15;;;20.40;99.90;;;;;;4954526;28;20291;-76
2023/05/14 16:15:06;;;;;;;8.88;4.70;;;20.30;99.90;;;;;;4954565;28;20208;-75
2023/05/14 16:17:33;;;;;;;8.65;4.80;;;20.30;99.90;;;;;;4954356;28;20299;-75
2023/05/14 16:20:00;;;;;;;9.68;5.07;;;20.20;99.90;;;;;;4954953;29;20707;-76
2023/05/14 16:22:27;;;;;;;9.30;5.30;;;20.30;99.90;;;;;;4954753;28;20215;-76
2023/05/14 16:24:55;;;;;;;6.68;4.85;;;20.30;99.90;;;;;;4954527;28;20208;-76
2023/05/14 16:27:22;;;;;;;8.52;5.40;;;20.10;99.90;;;;;;4954170;28;20215;-77
2023/05/14 16:29:50;;;;;;;8.35;5.20;;;20.10;99.90;;;;;;4954315;29;20632;-77
2023/05/14 16:32:17;;;;;;;11.02;4.63;;;20.10;99.90;;;;;;4954508;28;20208;-77
2023/05/14 16:34:48;;;;;;;8.32;5.03;;;20.20;99.90;;;;;;4954348;28;20603;-77
2023/05/14 16:37:15;;;;;;;7.50;4.68;;;20.00;99.90;;;;;;4956093;28;20216;-76
2023/05/14 16:39:42;;;;;;;7.15;4.05;;;20.00;99.90;;;;;;4957669;28;20247;-74
2023/05/14 16:42:09;;;;;;;9.02;4.70;;;20.00;99.90;;;;;;4958422;28;20208;-74
2023/05/14 16:44:36;;;;;;;9.25;4.97;;;19.90;99.90;;;;;;4957289;28;20220;-76
2023/05/14 16:47:05;;;;;;;6.22;4.18;;;19.80;99.90;;;;;;4957312;28;20303;-73
2023/05/14 16:49:32;;;;;;;9.77;4.95;;;19.70;99.90;;;;;;4957697;28;20298;-74
2023/05/14 16:51:59;;;;;;;6.20;4.10;;;19.60;99.90;;;;;;4957696;29;20207;-75
2023/05/14 16:54:26;;;;;;;7.22;4.45;;;19.70;99.90;;;;;;4957709;29;20695;-73
2023/05/14 16:56:52;;;;;;;7.55;4.50;;;19.50;99.90;;;;;;4957659;28;20255;-74
2023/05/14 16:59:19;;;;;;;8.10;4.80;;;19.40;99.90;;;;;;4957546;28;20274;-73
2023/05/14 17:01:47;;;;;;;8.23;4.35;;;19.30;99.90;;;;;;4957265;28;20310;-73
2023/05/14 17:04:16;;;;;;;7.18;4.30;;;19.20;99.90;;;;;;4952929;28;20674;-73
2023/05/14 17:06:43;;;;;;;7.88;4.18;;;19.10;99.90;;;;;;4957439;28;20259;-73
2023/05/14 17:09:10;;;;;;;9.02;4.15;;;19.00;99.90;;;;;;4966319;28;20246;-74
2023/05/14 17:11:37;;;;;;;6.90;3.85;;;19.00;99.90;;;;;;4976703;28;20263;-73
2023/05/14 17:14:04;;;;;;;7.35;4.00;;;18.90;99.90;;;;;;4958893;28;20311;-73
2023/05/14 17:16:31;;;;;;;6.32;4.25;;;18.90;99.90;;;;;;4957020;28;20239;-75
2023/05/14 17:18:58;;;;;;;6.00;3.67;;;19.00;99.90;;;;;;4957114;28;20322;-74
2023/05/14 17:21:26;;;;;;;4.25;3.55;;;19.00;99.90;;;;;;4966386;28;20259;-74
2023/05/14 17:23:53;;;;;;;7.28;3.17;;;18.80;99.90;;;;;;4960049;28;20303;-74
2023/05/14 17:26:20;;;;;;;5.15;3.67;;;18.80;99.90;;;;;;4956734;28;20694;-76
2023/05/14 17:28:47;;;;;;;5.93;3.42;;;18.90;99.90;;;;;;4956949;28;20208;-75
2023/05/14 17:31:15;;;;;;;4.63;3.55;;;18.90;99.90;;;;;;4957023;28;20286;-74
2023/05/14 17:33:42;;;;;;;4.37;3.40;;;18.70;99.90;;;;;;4956770;28;20226;-76
2023/05/14 17:36:09;;;;;;;8.63;3.33;;;18.50;99.90;;;;;;4957008;28;20276;-74
2023/05/14 17:38:37;;;;;;;4.45;3.03;;;18.30;99.90;;;;;;4956521;28;20228;-74
2023/05/14 17:41:04;;;;;;;6.63;3.10;;;18.10;99.90;;;;;;4956876;28;20260;-73
2023/05/14 17:43:31;;;;;;;7.17;3.50;;;17.90;99.90;;;;;;4956898;28;20619;-74
2023/05/14 17:45:58;;;;;;;5.13;2.97;;;17.90;99.90;;;;;;4956703;28;20235;-75
2023/05/14 17:48:25;;;;;;;6.73;3.10;;;17.80;99.90;;;;;;4956358;28;20243;-74
2023/05/14 17:50:53;;;;;;;4.23;3.03;;;17.70;99.90;;;;;;4956714;28;20252;-73
2023/05/14 17:53:20;;;;;;;7.93;3.30;;;17.80;99.90;;;;;;4957200;28;20244;-82
2023/05/14 17:55:49;;;;;;;6.53;2.87;;;17.50;99.90;;;;;;4957491;29;20251;-77
2023/05/14 17:58:16;;;;;;;5.87;3.50;;;17.50;99.90;;;;;;4968906;28;20199;-78
2023/05/14 18:00:43;;;;;;;9.77;3.50;;;17.50;99.90;;;;;;4963065;28;20255;-78
2023/05/14 18:03:10;;;;;;;5.47;3.63;;;17.50;99.90;;;;;;4956857;28;20219;-73
2023/05/14 18:05:37;;;;;;;5.90;3.73;;;17.30;99.90;;;;;;4956952;28;20212;-79
2023/05/14 18:08:04;;;;;;;3.53;2.90;;;17.20;99.90;;;;;;4957164;28;20298;-78
2023/05/14 18:10:31;;;;;;;6.03;3.20;;;17.00;99.90;;;;;;4956575;28;20227;-81
2023/05/14 18:12:59;;;;;;;5.30;3.20;;;16.90;99.90;;;;;;4956741;28;20299;-82
2023/05/14 18:15:26;;;;;;;5.53;3.30;;;16.90;99.90;;;;;;4956618;28;20296;-82
2023/05/14 18:17:53;;;;;;;5.67;3.50;;;17.00;99.90;;;;;;4956648;28;20686;-84
2023/05/14 18:20:20;;;;;;;6.27;3.80;;;17.00;99.90;;;;;;4956344;28;20333;-82
2023/05/14 18:22:48;;;;;;;8.77;3.50;;;16.90;99.90;;;;;;4956752;28;20231;-83
2023/05/14 18:25:15;;;;;;;4.90;3.50;;;16.80;99.90;;;;;;4956921;28;20501;-82
2023/05/14 18:27:43;;;;;;;5.47;3.43;;;16.70;99.90;;;;;;4956611;28;20310;-83
2023/05/14 18:30:13;;;;;;;5.37;3.87;;;16.60;99.90;;;;;;4956521;28;20240;-82
2023/05/14 18:32:41;;;;;;;5.47;3.50;;;16.70;99.90;;;;;;4953101;28;20278;-78
2023/05/14 18:35:09;;;;;;;5.90;3.53;;;16.50;99.90;;;;;;4954797;28;20615;-78
2023/05/14 18:37:36;;;;;;;7.93;4.13;;;16.50;99.90;;;;;;4955618;28;20243;-76
2023/05/14 18:40:05;;;;;;;6.10;3.83;;;16.40;99.90;;;;;;4955183;28;20334;-77
2023/05/14 18:42:32;;;;;;;7.47;3.93;;;16.40;99.90;;;;;;4955687;29;20640;-73
2023/05/14 18:44:59;;;;;;;8.23;4.37;;;16.40;99.90;;;;;;4955447;29;20250;-74
2023/05/14 18:47:27;;;;;;;6.37;3.83;;;16.30;99.90;;;;;;4955368;29;20675;-77
2023/05/14 18:49:57;;;;;;;6.57;3.97;;;16.20;99.90;;;;;;4955780;29;20311;-74
2023/05/14 18:52:25;;;;;;;6.67;3.93;;;16.10;99.90;;;;;;4955286;28;20204;-75
2023/05/14 18:54:52;;;;;;;6.00;3.77;;;16.10;99.90;;;;;;4951359;28;20208;-73
2023/05/14 18:57:19;;;;;;;6.53;4.10;;;16.00;99.90;;;;;;4955462;28;20215;-74
2023/05/14 18:59:46;;;;;;;10.83;4.47;;;16.00;99.90;;;;;;4955126;28;20356;-74
2023/05/14 19:02:13;;;;;;;8.33;4.20;;;16.00;99.90;;;;;;4955697;28;20242;-75
2023/05/14 19:04:41;;;;;;;5.20;3.77;;;16.00;99.90;;;;;;4955680;29;20294;-74
2023/05/14 19:07:08;;;;;;;10.53;4.57;;;15.80;99.90;;;;;;4955226;29;20244;-74
2023/05/14 19:09:35;;;;;;;7.57;4.27;;;15.80;99.90;;;;;;4955431;28;20243;-73
2023/05/14 19:12:02;;;;;;;9.90;4.30;;;15.80;99.90;;;;;;4955339;28;20295;-73
2023/05/14 19:14:30;;;;;;;7.63;4.20;;;15.80;99.90;;;;;;4955368;28;20706;-74
2023/05/14 19:16:57;;;;;;;5.87;3.53;;;15.90;99.90;;;;;;4955446;29;20203;-77
2023/05/14 19:19:24;;;;;;;5.77;4.07;;;15.90;99.90;;;;;;4955417;29;20326;-75
2023/05/14 19:21:53;;;;;;;6.47;3.77;;;15.80;99.90;;;;;;4955048;28;20690;-76
2023/05/14 19:24:20;;;;;;;9.47;5.20;;;15.70;99.90;;;;;;4954976;28;20636;-74
2023/05/14 19:26:46;;;;;;;7.13;3.90;;;15.70;99.90;;;;;;4954944;28;20208;-76
2023/05/14 19:29:13;;;;;;;7.30;3.90;;;15.60;99.90;;;;;;4955063;28;20302;-76
2023/05/14 19:31:40;;;;;;;8.37;3.97;;;15.60;99.90;;;;;;4955072;28;20259;-76
2023/05/14 19:34:07;;;;;;;6.00;3.93;;;15.50;99.90;;;;;;4954911;28;20255;-76
2023/05/14 19:36:34;;;;;;;7.43;3.90;;;15.40;99.90;;;;;;4955291;28;20250;-74
2023/05/14 19:39:03;;;;;;;5.80;3.67;;;15.20;99.90;;;;;;4955112;28;20223;-75
2023/05/14 19:41:30;;;;;;;8.07;3.27;;;15.20;99.90;;;;;;4967409;23;20291;-71
2023/05/14 19:43:57;;;;;;;7.23;4.03;;;15.20;99.90;;;;;;4955216;28;20208;-70
2023/05/14 19:46:24;;;;;;;7.03;3.53;;;15.00;99.90;;;;;;4955552;28;20208;-70
2023/05/14 19:48:51;;;;;;;6.70;4.10;;;15.00;99.90;;;;;;4954734;28;20287;-70
2023/05/14 19:51:18;;;;;;;8.87;4.30;;;15.00;99.90;;;;;;4954169;28;20224;-70
2023/05/14 19:53:45;;;;;;;8.63;4.37;;;15.00;99.90;;;;;;4954585;29;20208;-70
2023/05/14 19:56:14;;;;;;;6.87;4.03;;;14.90;99.90;;;;;;4954217;28;20199;-70
2023/05/14 19:58:41;;;;;;;6.10;3.70;;;14.90;99.90;;;;;;4954831;28;20208;-70
2023/05/14 20:01:08;;;;;;;7.23;3.87;;;14.80;99.90;;;;;;4954695;28;20282;-69
2023/05/14 20:03:34;;;;;;;6.13;4.00;;;14.90;99.90;;;;;;4954896;28;20204;-70
2023/05/14 20:06:02;;;;;;;5.30;3.80;;;14.80;99.90;;;;;;4954786;28;20270;-70
2023/05/14 20:08:29;;;;;;;5.73;3.33;;;14.70;99.90;;;;;;4954733;28;20667;-70
2023/05/14 20:10:56;;;;;;;10.37;4.17;;;14.50;99.90;;;;;;4954885;28;20638;-70
2023/05/14 20:13:24;;;;;;;9.83;4.03;;;14.50;99.90;;;;;;4958184;28;20212;-70
2023/05/14 20:15:51;;;;;;;6.00;4.17;;;14.40;99.90;;;;;;4958652;29;20236;-70
2023/05/14 20:18:18;;;;;;;6.77;4.10;;;14.40;99.90;;;;;;4959546;28;20659;-70
2023/05/14 20:20:45;;;;;;;6.77;4.00;;;14.40;99.90;;;;;;4961743;28;20274;-69
2023/05/14 20:23:12;;;;;;;10.90;4.87;;;14.30;99.90;;;;;;4961440;28;20208;-70
2023/05/14 20:25:40;;;;;;;10.60;5.03;;;14.30;99.90;;;;;;4961463;28;20235;-70